sensor_id;sensor_type;location;lat;lon;timestamp;pressure;altitude;pressure_sealevel;temperature;humidity
35918;BME280;22011;59.912;30.300;2022-07-29T00:01:29;101370.44;;;18.43;68.58
35918;BME280;22011;59.912;30.300;2022-07-29T00:03:57;101370.66;;;18.41;68.99
35918;BME280;22011;59.912;30.300;2022-07-29T00:06:26;101373.97;;;18.43;69.50
35918;BME280;22011;59.912;30.300;2022-07-29T00:08:53;101373.53;;;18.40;69.24
35918;BME280;22011;59.912;30.300;2022-07-29T00:11:21;101372.91;;;18.38;69.12
35918;BME280;22011;59.912;30.300;2022-07-29T00:13:48;101370.00;;;18.39;69.65
35918;BME280;22011;59.912;30.300;2022-07-29T00:16:16;101373.50;;;18.33;69.66
35918;BME280;22011;59.912;30.300;2022-07-29T00:18:44;101367.88;;;18.28;70.19
35918;BME280;22011;59.912;30.300;2022-07-29T00:21:11;101367.25;;;18.26;70.15
35918;BME280;22011;59.912;30.300;2022-07-29T00:23:40;101377.63;;;18.22;70.80
35918;BME280;22011;59.912;30.300;2022-07-29T00:26:08;101372.63;;;18.19;70.64
35918;BME280;22011;59.912;30.300;2022-07-29T00:28:36;101364.34;;;18.21;70.61
35918;BME280;22011;59.912;30.300;2022-07-29T00:31:03;101366.00;;;18.22;70.78
35918;BME280;22011;59.912;30.300;2022-07-29T00:33:31;101370.75;;;18.20;70.95
35918;BME280;22011;59.912;30.300;2022-07-29T00:35:58;101371.59;;;18.20;71.25
35918;BME280;22011;59.912;30.300;2022-07-29T00:38:25;101375.53;;;18.18;71.29
35918;BME280;22011;59.912;30.300;2022-07-29T00:40:54;101362.25;;;18.23;71.82
35918;BME280;22011;59.912;30.300;2022-07-29T00:43:22;101368.91;;;18.20;71.50
35918;BME280;22011;59.912;30.300;2022-07-29T00:45:49;101366.81;;;18.22;72.23
35918;BME280;22011;59.912;30.300;2022-07-29T00:48:17;101367.44;;;18.18;72.59
35918;BME280;22011;59.912;30.300;2022-07-29T00:50:44;101368.91;;;18.20;72.66
35918;BME280;22011;59.912;30.300;2022-07-29T00:53:12;101368.69;;;18.22;72.65
35918;BME280;22011;59.912;30.300;2022-07-29T00:55:40;101366.44;;;18.25;73.09
35918;BME280;22011;59.912;30.300;2022-07-29T00:58:11;101364.19;;;18.36;73.62
35918;BME280;22011;59.912;30.300;2022-07-29T01:00:39;101360.63;;;18.28;73.54
35918;BME280;22011;59.912;30.300;2022-07-29T01:03:08;101361.69;;;18.34;73.17
35918;BME280;22011;59.912;30.300;2022-07-29T01:05:35;101362.31;;;18.36;73.24
35918;BME280;22011;59.912;30.300;2022-07-29T01:08:03;101363.56;;;18.34;73.02
35918;BME280;22011;59.912;30.300;2022-07-29T01:10:32;101360.66;;;18.35;73.27
35918;BME280;22011;59.912;30.300;2022-07-29T01:13:01;101355.69;;;18.39;72.62
35918;BME280;22011;59.912;30.300;2022-07-29T01:15:30;101355.31;;;18.48;72.91
35918;BME280;22011;59.912;30.300;2022-07-29T01:18:07;101346.44;;;18.61;72.15
35918;BME280;22011;59.912;30.300;2022-07-29T01:20:54;101353.13;;;18.72;71.68
35918;BME280;22011;59.912;30.300;2022-07-29T01:23:45;101345.84;;;18.79;70.83
35918;BME280;22011;59.912;30.300;2022-07-29T01:26:41;101342.31;;;18.85;69.51
35918;BME280;22011;59.912;30.300;2022-07-29T01:29:24;101346.25;;;18.82;68.67
35918;BME280;22011;59.912;30.300;2022-07-29T01:31:57;101349.16;;;18.68;67.76
35918;BME280;22011;59.912;30.300;2022-07-29T01:34:30;101350.22;;;18.67;66.61
35918;BME280;22011;59.912;30.300;2022-07-29T01:37:06;101361.00;;;18.67;66.93
35918;BME280;22011;59.912;30.300;2022-07-29T01:39:37;101357.63;;;18.58;66.18
35918;BME280;22011;59.912;30.300;2022-07-29T01:42:12;101347.47;;;18.60;66.12
35918;BME280;22011;59.912;30.300;2022-07-29T01:44:48;101353.72;;;18.60;66.12
35918;BME280;22011;59.912;30.300;2022-07-29T01:47:20;101358.22;;;18.53;66.13
35918;BME280;22011;59.912;30.300;2022-07-29T01:49:54;101358.22;;;18.53;66.19
35918;BME280;22011;59.912;30.300;2022-07-29T01:52:25;101361.34;;;18.50;66.29
35918;BME280;22011;59.912;30.300;2022-07-29T01:54:56;101366.72;;;18.50;66.14
35918;BME280;22011;59.912;30.300;2022-07-29T01:57:28;101363.63;;;18.53;66.27
35918;BME280;22011;59.912;30.300;2022-07-29T01:59:59;101365.09;;;18.56;66.03
35918;BME280;22011;59.912;30.300;2022-07-29T02:02:39;101373.63;;;18.59;66.25
35918;BME280;22011;59.912;30.300;2022-07-29T02:05:10;101367.22;;;18.60;65.83
35918;BME280;22011;59.912;30.300;2022-07-29T02:07:40;101376.09;;;18.54;66.07
35918;BME280;22011;59.912;30.300;2022-07-29T02:10:10;101373.38;;;18.54;65.92
35918;BME280;22011;59.912;30.300;2022-07-29T02:12:39;101368.63;;;18.56;65.42
35918;BME280;22011;59.912;30.300;2022-07-29T02:15:10;101376.16;;;18.68;65.77
35918;BME280;22011;59.912;30.300;2022-07-29T02:17:41;101376.56;;;18.65;65.80
35918;BME280;22011;59.912;30.300;2022-07-29T02:20:10;101380.72;;;18.60;65.37
35918;BME280;22011;59.912;30.300;2022-07-29T02:22:39;101388.97;;;18.59;65.22
35918;BME280;22011;59.912;30.300;2022-07-29T02:25:08;101380.72;;;18.60;65.30
35918;BME280;22011;59.912;30.300;2022-07-29T02:27:37;101386.09;;;18.60;65.13
35918;BME280;22011;59.912;30.300;2022-07-29T02:30:09;101382.78;;;18.65;64.78
35918;BME280;22011;59.912;30.300;2022-07-29T02:32:41;101382.41;;;18.68;64.59
35918;BME280;22011;59.912;30.300;2022-07-29T02:35:09;101373.88;;;18.65;64.95
35918;BME280;22011;59.912;30.300;2022-07-29T02:37:38;101385.50;;;18.65;64.93
35918;BME280;22011;59.912;30.300;2022-07-29T02:40:10;101388.41;;;18.70;64.92
35918;BME280;22011;59.912;30.300;2022-07-29T02:42:40;101387.78;;;18.68;64.52
35918;BME280;22011;59.912;30.300;2022-07-29T02:45:11;101388.22;;;18.72;65.04
35918;BME280;22011;59.912;30.300;2022-07-29T02:47:42;101384.69;;;18.71;64.78
35918;BME280;22011;59.912;30.300;2022-07-29T02:50:15;101384.44;;;18.73;64.41
35918;BME280;22011;59.912;30.300;2022-07-29T02:52:47;101375.53;;;18.66;64.46
35918;BME280;22011;59.912;30.300;2022-07-29T02:55:19;101383.22;;;18.69;64.39
35918;BME280;22011;59.912;30.300;2022-07-29T02:57:53;101380.13;;;18.72;64.41
35918;BME280;22011;59.912;30.300;2022-07-29T03:00:26;101368.69;;;18.70;65.02
35918;BME280;22011;59.912;30.300;2022-07-29T03:02:56;101374.09;;;18.70;64.75
35918;BME280;22011;59.912;30.300;2022-07-29T03:05:26;101378.63;;;18.63;65.28
35918;BME280;22011;59.912;30.300;2022-07-29T03:07:57;101379.47;;;18.63;65.59
35918;BME280;22011;59.912;30.300;2022-07-29T03:10:26;101376.72;;;18.56;65.68
35918;BME280;22011;59.912;30.300;2022-07-29T03:12:55;101379.00;;;18.53;65.94
35918;BME280;22011;59.912;30.300;2022-07-29T03:15:25;101371.31;;;18.50;66.41
35918;BME280;22011;59.912;30.300;2022-07-29T03:17:53;101373.13;;;18.43;66.02
35918;BME280;22011;59.912;30.300;2022-07-29T03:20:21;101379.13;;;18.38;65.91
35918;BME280;22011;59.912;30.300;2022-07-29T03:22:49;101371.03;;;18.38;65.70
35918;BME280;22011;59.912;30.300;2022-07-29T03:25:19;101372.50;;;18.41;66.05
35918;BME280;22011;59.912;30.300;2022-07-29T03:27:48;101371.66;;;18.34;66.04
35918;BME280;22011;59.912;30.300;2022-07-29T03:30:16;101372.06;;;18.37;66.10
35918;BME280;22011;59.912;30.300;2022-07-29T03:32:44;101373.13;;;18.43;65.90
35918;BME280;22011;59.912;30.300;2022-07-29T03:35:12;101366.06;;;18.42;65.64
35918;BME280;22011;59.912;30.300;2022-07-29T03:37:40;101369.63;;;18.42;65.51
35918;BME280;22011;59.912;30.300;2022-07-29T03:40:08;101369.63;;;18.42;65.70
35918;BME280;22011;59.912;30.300;2022-07-29T03:42:39;101364.03;;;18.50;65.75
35918;BME280;22011;59.912;30.300;2022-07-29T03:45:12;101370.66;;;18.48;65.58
35918;BME280;22011;59.912;30.300;2022-07-29T03:47:43;101369.03;;;18.53;65.29
35918;BME280;22011;59.912;30.300;2022-07-29T03:50:14;101373.25;;;18.63;64.94
35918;BME280;22011;59.912;30.300;2022-07-29T03:52:43;101374.44;;;18.60;65.50
35918;BME280;22011;59.912;30.300;2022-07-29T03:55:10;101368.03;;;18.61;65.77
35918;BME280;22011;59.912;30.300;2022-07-29T03:57:39;101369.50;;;18.64;66.73
35918;BME280;22011;59.912;30.300;2022-07-29T04:00:08;101374.91;;;18.64;66.37
35918;BME280;22011;59.912;30.300;2022-07-29T04:02:38;101382.59;;;18.67;65.53
35918;BME280;22011;59.912;30.300;2022-07-29T04:05:12;101371.59;;;18.81;65.55
35918;BME280;22011;59.912;30.300;2022-07-29T04:07:43;101375.75;;;18.84;65.09
35918;BME280;22011;59.912;30.300;2022-07-29T04:10:11;101372.03;;;18.85;64.44
35918;BME280;22011;59.912;30.300;2022-07-29T04:12:38;101376.38;;;18.86;64.41
35918;BME280;22011;59.912;30.300;2022-07-29T04:15:07;101379.09;;;18.92;64.37
35918;BME280;22011;59.912;30.300;2022-07-29T04:17:35;101367.47;;;18.92;64.33
35918;BME280;22011;59.912;30.300;2022-07-29T04:20:03;101373.50;;;18.94;64.24
35918;BME280;22011;59.912;30.300;2022-07-29T04:22:31;101374.94;;;18.90;64.28
35918;BME280;22011;59.912;30.300;2022-07-29T04:24:59;101375.56;;;18.99;64.28
35918;BME280;22011;59.912;30.300;2022-07-29T04:27:27;101372.06;;;19.05;64.01
35918;BME280;22011;59.912;30.300;2022-07-29T04:29:54;101370.41;;;19.10;64.06
35918;BME280;22011;59.912;30.300;2022-07-29T04:32:22;101377.88;;;19.08;64.02
35918;BME280;22011;59.912;30.300;2022-07-29T04:34:50;101378.50;;;19.04;63.62
35918;BME280;22011;59.912;30.300;2022-07-29T04:37:17;101382.00;;;18.98;63.90
35918;BME280;22011;59.912;30.300;2022-07-29T04:39:45;101374.53;;;18.93;64.27
35918;BME280;22011;59.912;30.300;2022-07-29T04:42:14;101376.19;;;18.94;64.39
35918;BME280;22011;59.912;30.300;2022-07-29T04:44:41;101373.69;;;18.92;64.13
35918;BME280;22011;59.912;30.300;2022-07-29T04:47:09;101371.03;;;19.06;64.03
35918;BME280;22011;59.912;30.300;2022-07-29T04:49:37;101367.91;;;19.15;62.96
35918;BME280;22011;59.912;30.300;2022-07-29T04:52:05;101370.00;;;19.26;62.83
35918;BME280;22011;59.912;30.300;2022-07-29T04:54:33;101369.16;;;19.33;62.48
35918;BME280;22011;59.912;30.300;2022-07-29T04:57:00;101367.50;;;19.45;62.32
35918;BME280;22011;59.912;30.300;2022-07-29T04:59:29;101369.59;;;19.56;62.04
35918;BME280;22011;59.912;30.300;2022-07-29T05:01:57;101367.94;;;19.68;61.68
35918;BME280;22011;59.912;30.300;2022-07-29T05:04:24;101357.31;;;19.73;61.63
35918;BME280;22011;59.912;30.300;2022-07-29T05:06:52;101362.03;;;19.84;61.25
35918;BME280;22011;59.912;30.300;2022-07-29T05:09:19;101361.41;;;19.96;60.79
35918;BME280;22011;59.912;30.300;2022-07-29T05:11:47;101364.50;;;20.06;60.71
35918;BME280;22011;59.912;30.300;2022-07-29T05:14:15;101358.41;;;20.17;60.41
35918;BME280;22011;59.912;30.300;2022-07-29T05:16:44;101364.88;;;20.16;60.50
35918;BME280;22011;59.912;30.300;2022-07-29T05:19:11;101355.31;;;20.13;60.18
35918;BME280;22011;59.912;30.300;2022-07-29T05:21:39;101359.72;;;20.01;60.92
35918;BME280;22011;59.912;30.300;2022-07-29T05:24:06;101366.38;;;20.05;60.70
35918;BME280;22011;59.912;30.300;2022-07-29T05:26:34;101360.94;;;20.12;60.66
35918;BME280;22011;59.912;30.300;2022-07-29T05:29:02;101357.38;;;20.11;60.67
35918;BME280;22011;59.912;30.300;2022-07-29T05:31:30;101353.00;;;20.17;60.75
35918;BME280;22011;59.912;30.300;2022-07-29T05:33:59;101360.69;;;20.20;61.09
35918;BME280;22011;59.912;30.300;2022-07-29T05:36:26;101359.25;;;20.17;61.66
35918;BME280;22011;59.912;30.300;2022-07-29T05:38:54;101359.88;;;20.19;61.78
35918;BME280;22011;59.912;30.300;2022-07-29T05:41:21;101365.47;;;20.24;61.40
35918;BME280;22011;59.912;30.300;2022-07-29T05:43:49;101358.41;;;20.17;61.26
35918;BME280;22011;59.912;30.300;2022-07-29T05:46:16;101362.16;;;20.16;61.68
35918;BME280;22011;59.912;30.300;2022-07-29T05:48:44;101360.50;;;20.15;61.79
35918;BME280;22011;59.912;30.300;2022-07-29T05:51:13;101361.94;;;20.24;62.09
35918;BME280;22011;59.912;30.300;2022-07-29T05:53:40;101352.34;;;20.28;61.46
35918;BME280;22011;59.912;30.300;2022-07-29T05:56:08;101360.63;;;20.33;60.75
35918;BME280;22011;59.912;30.300;2022-07-29T05:58:36;101356.06;;;20.40;60.40
35918;BME280;22011;59.912;30.300;2022-07-29T06:01:03;101355.41;;;20.45;60.09
35918;BME280;22011;59.912;30.300;2022-07-29T06:03:31;101359.38;;;20.42;59.69
35918;BME280;22011;59.912;30.300;2022-07-29T06:05:58;101361.00;;;20.50;59.58
35918;BME280;22011;59.912;30.300;2022-07-29T06:08:27;101361.38;;;20.60;58.98
35918;BME280;22011;59.912;30.300;2022-07-29T06:10:55;101356.19;;;20.59;58.63
35918;BME280;22011;59.912;30.300;2022-07-29T06:13:22;101356.97;;;20.66;57.83
35918;BME280;22011;59.912;30.300;2022-07-29T06:15:50;101359.25;;;20.69;57.76
35918;BME280;22011;59.912;30.300;2022-07-29T06:18:17;101361.34;;;20.67;57.72
35918;BME280;22011;59.912;30.300;2022-07-29T06:20:46;101360.50;;;20.66;57.66
35918;BME280;22011;59.912;30.300;2022-07-29T06:23:14;101360.50;;;20.66;58.07
35918;BME280;22011;59.912;30.300;2022-07-29T06:25:43;101365.88;;;20.73;58.27
35918;BME280;22011;59.912;30.300;2022-07-29T06:28:11;101360.06;;;20.69;57.84
35918;BME280;22011;59.912;30.300;2022-07-29T06:30:38;101370.91;;;20.69;57.90
35918;BME280;22011;59.912;30.300;2022-07-29T06:33:06;101363.00;;;20.68;58.11
35918;BME280;22011;59.912;30.300;2022-07-29T06:35:34;101370.50;;;20.66;58.27
35918;BME280;22011;59.912;30.300;2022-07-29T06:38:03;101365.53;;;20.63;58.63
35918;BME280;22011;59.912;30.300;2022-07-29T06:40:30;101361.16;;;20.62;58.65
35918;BME280;22011;59.912;30.300;2022-07-29T06:43:16;101368.63;;;20.66;58.58
35918;BME280;22011;59.912;30.300;2022-07-29T06:45:44;101366.97;;;20.65;58.75
35918;BME280;22011;59.912;30.300;2022-07-29T06:48:11;101363.44;;;20.65;58.26
35918;BME280;22011;59.912;30.300;2022-07-29T06:50:39;101362.81;;;20.63;58.28
35918;BME280;22011;59.912;30.300;2022-07-29T06:53:07;101368.41;;;20.68;58.60
35918;BME280;22011;59.912;30.300;2022-07-29T06:55:34;101368.38;;;20.74;58.43
35918;BME280;22011;59.912;30.300;2022-07-29T06:58:03;101366.81;;;20.85;57.80
35918;BME280;22011;59.912;30.300;2022-07-29T07:00:31;101378.28;;;20.87;58.16
35918;BME280;22011;59.912;30.300;2022-07-29T07:02:59;101372.84;;;20.87;57.58
35918;BME280;22011;59.912;30.300;2022-07-29T07:05:27;101369.09;;;20.88;56.62
35918;BME280;22011;59.912;30.300;2022-07-29T07:07:54;101374.94;;;20.85;56.52
35918;BME280;22011;59.912;30.300;2022-07-29T07:10:22;101380.53;;;20.90;56.45
35918;BME280;22011;59.912;30.300;2022-07-29T07:12:49;101384.53;;;20.87;56.36
35918;BME280;22011;59.912;30.300;2022-07-29T07:15:17;101382.84;;;20.86;55.76
35918;BME280;22011;59.912;30.300;2022-07-29T07:17:49;101388.63;;;20.97;55.89
35918;BME280;22011;59.912;30.300;2022-07-29T07:20:17;101384.47;;;20.94;54.97
35918;BME280;22011;59.912;30.300;2022-07-29T07:22:45;101379.50;;;20.91;54.67
35918;BME280;22011;59.912;30.300;2022-07-29T07:25:12;101383.88;;;20.92;54.39
35918;BME280;22011;59.912;30.300;2022-07-29T07:27:40;101386.97;;;20.96;54.02
35918;BME280;22011;59.912;30.300;2022-07-29T07:30:08;101382.56;;;21.01;54.45
35918;BME280;22011;59.912;30.300;2022-07-29T07:32:36;101382.34;;;21.03;53.81
35918;BME280;22011;59.912;30.300;2022-07-29T07:35:07;101383.44;;;21.27;54.29
35918;BME280;22011;59.912;30.300;2022-07-29T07:37:35;101390.91;;;21.31;52.90
35918;BME280;22011;59.912;30.300;2022-07-29T07:40:04;101389.97;;;21.44;51.93
35918;BME280;22011;59.912;30.300;2022-07-29T07:42:32;101378.63;;;21.53;51.35
35918;BME280;22011;59.912;30.300;2022-07-29T07:44:59;101383.78;;;21.62;50.99
35918;BME280;22011;59.912;30.300;2022-07-29T07:47:27;101384.75;;;21.67;50.98
35918;BME280;22011;59.912;30.300;2022-07-29T07:49:54;101381.75;;;21.75;50.10
35918;BME280;22011;59.912;30.300;2022-07-29T07:52:23;101385.38;;;21.87;49.14
35918;BME280;22011;59.912;30.300;2022-07-29T07:54:51;101386.28;;;21.81;51.00
35918;BME280;22011;59.912;30.300;2022-07-29T07:57:19;101379.94;;;21.87;48.97
35918;BME280;22011;59.912;30.300;2022-07-29T07:59:46;101391.19;;;21.91;50.98
35918;BME280;22011;59.912;30.300;2022-07-29T08:02:14;101387.56;;;21.79;49.16
35918;BME280;22011;59.912;30.300;2022-07-29T08:04:41;101390.28;;;21.79;49.39
35918;BME280;22011;59.912;30.300;2022-07-29T08:07:09;101385.47;;;21.81;49.37
35918;BME280;22011;59.912;30.300;2022-07-29T08:09:38;101393.94;;;21.84;49.51
35918;BME280;22011;59.912;30.300;2022-07-29T08:12:06;101393.44;;;21.94;48.99
35918;BME280;22011;59.912;30.300;2022-07-29T08:14:34;101386.13;;;21.95;49.19
35918;BME280;22011;59.912;30.300;2022-07-29T08:17:01;101387.84;;;21.89;48.98
35918;BME280;22011;59.912;30.300;2022-07-29T08:19:29;101394.88;;;21.78;48.84
35918;BME280;22011;59.912;30.300;2022-07-29T08:21:57;101397.28;;;21.68;48.57
35918;BME280;22011;59.912;30.300;2022-07-29T08:24:24;101400.97;;;21.74;48.55
35918;BME280;22011;59.912;30.300;2022-07-29T08:27:12;101401.41;;;21.89;48.87
35918;BME280;22011;59.912;30.300;2022-07-29T08:29:40;101401.13;;;21.97;48.99
35918;BME280;22011;59.912;30.300;2022-07-29T08:32:07;101399.81;;;22.06;48.81
35918;BME280;22011;59.912;30.300;2022-07-29T08:34:35;101416.56;;;21.97;48.96
35918;BME280;22011;59.912;30.300;2022-07-29T08:37:02;101404.22;;;22.01;48.22
35918;BME280;22011;59.912;30.300;2022-07-29T08:39:30;101408.63;;;22.02;48.00
35918;BME280;22011;59.912;30.300;2022-07-29T08:41:58;101401.97;;;21.98;48.55
35918;BME280;22011;59.912;30.300;2022-07-29T08:44:27;101412.03;;;21.91;48.88
35918;BME280;22011;59.912;30.300;2022-07-29T08:46:54;101415.72;;;22.03;48.74
35918;BME280;22011;59.912;30.300;2022-07-29T08:49:22;101416.09;;;22.06;48.35
35918;BME280;22011;59.912;30.300;2022-07-29T08:51:50;101418.59;;;22.08;48.83
35918;BME280;22011;59.912;30.300;2022-07-29T08:54:18;101414.97;;;22.14;48.43
35918;BME280;22011;59.912;30.300;2022-07-29T08:56:48;101437.59;;;22.26;49.05
35918;BME280;22011;59.912;30.300;2022-07-29T08:59:15;101422.34;;;22.62;48.77
35918;BME280;22011;59.912;30.300;2022-07-29T09:01:48;101423.56;;;22.11;49.64
35918;BME280;22011;59.912;30.300;2022-07-29T09:04:17;101426.22;;;21.93;50.05
35918;BME280;22011;59.912;30.300;2022-07-29T09:06:48;101429.69;;;22.00;50.54
35918;BME280;22011;59.912;30.300;2022-07-29T09:09:16;101419.13;;;21.92;51.09
35918;BME280;22011;59.912;30.300;2022-07-29T09:11:44;101424.13;;;21.95;51.24
35918;BME280;22011;59.912;30.300;2022-07-29T09:14:12;101419.91;;;21.99;51.51
35918;BME280;22011;59.912;30.300;2022-07-29T09:16:45;101430.72;;;22.05;51.69
35918;BME280;22011;59.912;30.300;2022-07-29T09:19:21;101425.28;;;22.05;51.90
35918;BME280;22011;59.912;30.300;2022-07-29T09:21:49;101428.16;;;21.85;52.14
35918;BME280;22011;59.912;30.300;2022-07-29T09:24:36;101417.91;;;21.87;51.92
35918;BME280;22011;59.912;30.300;2022-07-29T09:27:18;101436.19;;;21.99;51.91
35918;BME280;22011;59.912;30.300;2022-07-29T09:29:48;101431.66;;;21.93;50.92
35918;BME280;22011;59.912;30.300;2022-07-29T09:32:22;101426.44;;;21.91;50.87
35918;BME280;22011;59.912;30.300;2022-07-29T09:34:51;101425.53;;;21.97;50.65
35918;BME280;22011;59.912;30.300;2022-07-29T09:37:38;101427.25;;;22.16;49.25
35918;BME280;22011;59.912;30.300;2022-07-29T09:40:11;101429.75;;;22.36;48.57
35918;BME280;22011;59.912;30.300;2022-07-29T09:42:39;101426.81;;;22.19;48.60
35918;BME280;22011;59.912;30.300;2022-07-29T09:45:08;101425.44;;;22.29;48.69
35918;BME280;22011;59.912;30.300;2022-07-29T09:47:43;101428.84;;;22.42;49.89
35918;BME280;22011;59.912;30.300;2022-07-29T09:50:16;101426.88;;;22.13;50.43
35918;BME280;22011;59.912;30.300;2022-07-29T09:52:47;101432.59;;;22.05;49.63
35918;BME280;22011;59.912;30.300;2022-07-29T09:55:15;101426.44;;;21.91;49.21
35918;BME280;22011;59.912;30.300;2022-07-29T09:57:44;101429.38;;;21.90;49.15
35918;BME280;22011;59.912;30.300;2022-07-29T10:00:14;101421.00;;;21.91;49.85
35918;BME280;22011;59.912;30.300;2022-07-29T10:02:45;101426.00;;;21.94;49.38
35918;BME280;22011;59.912;30.300;2022-07-29T10:05:19;101425.16;;;22.18;48.54
35918;BME280;22011;59.912;30.300;2022-07-29T10:07:49;101421.44;;;22.13;48.27
35918;BME280;22011;59.912;30.300;2022-07-29T10:10:23;101428.25;;;22.40;47.37
35918;BME280;22011;59.912;30.300;2022-07-29T10:12:53;101437.28;;;22.52;46.96
35918;BME280;22011;59.912;30.300;2022-07-29T10:15:22;101422.41;;;22.55;45.55
35918;BME280;22011;59.912;30.300;2022-07-29T10:17:51;101425.66;;;22.45;45.27
35918;BME280;22011;59.912;30.300;2022-07-29T10:20:21;101433.22;;;22.43;46.30
35918;BME280;22011;59.912;30.300;2022-07-29T10:22:48;101429.44;;;22.81;46.54
35918;BME280;22011;59.912;30.300;2022-07-29T10:25:17;101434.81;;;22.33;46.42
35918;BME280;22011;59.912;30.300;2022-07-29T10:27:46;101441.81;;;22.22;46.33
35918;BME280;22011;59.912;30.300;2022-07-29T10:30:15;101438.72;;;22.18;46.72
35918;BME280;22011;59.912;30.300;2022-07-29T10:35:54;101438.50;;;22.20;47.27
35918;BME280;22011;59.912;30.300;2022-07-29T10:41:39;101427.63;;;22.20;46.59
35918;BME280;22011;59.912;30.300;2022-07-29T10:44:15;101437.13;;;22.11;46.63
35918;BME280;22011;59.912;30.300;2022-07-29T10:46:43;101439.09;;;22.04;46.43
35918;BME280;22011;59.912;30.300;2022-07-29T10:49:14;101429.88;;;22.05;47.25
35918;BME280;22011;59.912;30.300;2022-07-29T10:51:54;101438.34;;;22.33;47.73
35918;BME280;22011;59.912;30.300;2022-07-29T10:54:46;101432.75;;;22.46;47.97
35918;BME280;22011;59.912;30.300;2022-07-29T10:57:19;101435.78;;;22.38;47.31
35918;BME280;22011;59.912;30.300;2022-07-29T10:59:48;101431.94;;;22.46;47.89
35918;BME280;22011;59.912;30.300;2022-07-29T11:02:42;101437.88;;;22.73;47.06
35918;BME280;22011;59.912;30.300;2022-07-29T11:05:11;101443.63;;;22.46;46.63
35918;BME280;22011;59.912;30.300;2022-07-29T11:08:16;101440.94;;;22.76;46.40
35918;BME280;22011;59.912;30.300;2022-07-29T11:10:46;101441.22;;;22.38;47.04
35918;BME280;22011;59.912;30.300;2022-07-29T11:13:48;101443.97;;;22.68;46.62
35918;BME280;22011;59.912;30.300;2022-07-29T11:16:19;101450.56;;;22.24;46.35
35918;BME280;22011;59.912;30.300;2022-07-29T11:19:19;101443.09;;;22.38;46.55
35918;BME280;22011;59.912;30.300;2022-07-29T11:21:48;101439.09;;;22.04;46.19
35918;BME280;22011;59.912;30.300;2022-07-29T11:24:19;101453.78;;;22.14;46.02
35918;BME280;22011;59.912;30.300;2022-07-29T11:27:08;101446.34;;;22.28;47.75
35918;BME280;22011;59.912;30.300;2022-07-29T11:29:40;101447.38;;;22.09;47.27
35918;BME280;22011;59.912;30.300;2022-07-29T11:32:09;101437.44;;;21.96;47.17
35918;BME280;22011;59.912;30.300;2022-07-29T11:34:37;101437.56;;;22.08;46.84
35918;BME280;22011;59.912;30.300;2022-07-29T11:37:18;101442.50;;;22.36;46.93
35918;BME280;22011;59.912;30.300;2022-07-29T11:42:41;101444.75;;;22.39;46.16
35918;BME280;22011;59.912;30.300;2022-07-29T11:45:11;101446.03;;;22.18;45.35
35918;BME280;22011;59.912;30.300;2022-07-29T11:47:40;101443.00;;;22.63;45.93
35918;BME280;22011;59.912;30.300;2022-07-29T11:50:10;101449.34;;;22.20;44.30
35918;BME280;22011;59.912;30.300;2022-07-29T11:52:40;101442.56;;;22.29;44.65
35918;BME280;22011;59.912;30.300;2022-07-29T11:55:14;101451.00;;;22.39;44.44
35918;BME280;22011;59.912;30.300;2022-07-29T11:57:48;101445.75;;;22.44;44.36
35918;BME280;22011;59.912;30.300;2022-07-29T12:00:24;101444.84;;;22.32;44.47
35918;BME280;22011;59.912;30.300;2022-07-29T12:02:53;101437.22;;;22.23;44.06
35918;BME280;22011;59.912;30.300;2022-07-29T12:05:25;101454.47;;;22.28;43.50
35918;BME280;22011;59.912;30.300;2022-07-29T12:08:04;101456.38;;;22.46;43.27
35918;BME280;22011;59.912;30.300;2022-07-29T12:10:34;101452.81;;;22.27;43.86
35918;BME280;22011;59.912;30.300;2022-07-29T12:13:02;101446.47;;;22.15;44.08
35918;BME280;22011;59.912;30.300;2022-07-29T12:15:30;101449.56;;;22.18;44.36
35918;BME280;22011;59.912;30.300;2022-07-29T12:17:57;101442.25;;;22.19;44.62
35918;BME280;22011;59.912;30.300;2022-07-29T12:20:27;101441.06;;;22.33;44.95
35918;BME280;22011;59.912;30.300;2022-07-29T12:22:55;101441.59;;;22.42;45.07
35918;BME280;22011;59.912;30.300;2022-07-29T12:25:23;101445.81;;;22.38;45.27
35918;BME280;22011;59.912;30.300;2022-07-29T12:28:02;101441.34;;;22.62;45.71
35918;BME280;22011;59.912;30.300;2022-07-29T12:30:41;101444.81;;;22.69;45.20
35918;BME280;22011;59.912;30.300;2022-07-29T12:33:18;101446.88;;;22.55;44.41
35918;BME280;22011;59.912;30.300;2022-07-29T12:35:49;101449.34;;;22.57;44.20
35918;BME280;22011;59.912;30.300;2022-07-29T12:38:17;101445.88;;;22.49;44.59
35918;BME280;22011;59.912;30.300;2022-07-29T12:40:46;101453.81;;;22.51;45.26
35918;BME280;22011;59.912;30.300;2022-07-29T12:43:17;101463.06;;;22.62;45.82
35918;BME280;22011;59.912;30.300;2022-07-29T12:45:46;101451.78;;;22.46;46.25
35918;BME280;22011;59.912;30.300;2022-07-29T12:48:16;101454.03;;;22.49;46.49
35918;BME280;22011;59.912;30.300;2022-07-29T12:50:55;101456.13;;;22.66;46.39
35918;BME280;22011;59.912;30.300;2022-07-29T12:53:23;101453.72;;;22.39;46.53
35918;BME280;22011;59.912;30.300;2022-07-29T12:55:52;101458.41;;;22.32;46.21
35918;BME280;22011;59.912;30.300;2022-07-29T12:58:29;101463.22;;;22.48;46.64
35918;BME280;22011;59.912;30.300;2022-07-29T13:01:02;101453.81;;;22.33;46.35
35918;BME280;22011;59.912;30.300;2022-07-29T13:03:48;101450.94;;;22.46;46.56
35918;BME280;22011;59.912;30.300;2022-07-29T13:06:34;101446.50;;;22.51;46.08